Latest Weather Observations for Wattamolla

IDN60901

Issued at 2:11 am EST Thursday 28 May 2020 (issued every 10 minutes, with the page automatically refreshed every 10 minutes)

About weather observations | Map of Sydney area stations | Latest observations for Sydney area | Other Formats
Station Details ID: 066208 Name: WATTAMOLLA AWS Lat: -34.14 Lon: 151.12 Height: 44.0 m
Data from the previous 72 hours. | See also: Recent months at Wattamolla
Date/Time
EST
Temp
°C
App
Temp
°C
Dew
Point
°C
Rel
Hum
%
Delta-T
°C
Wind Press
QNH
hPa
Press
MSL
hPa
Rain since
9am
mm
Dir  Spd
km/h
Gust
km/h
Spd
kts
Gust
kts
28/02:00am - - - - - NW 17 19 9 10 - - -
28/01:30am - - - - - NW 17 19 9 10 - - -
28/01:00am - - - - - NW 17 19 9 10 - - -
28/12:30am - - - - - WNW 17 20 9 11 - - -
28/12:00am - - - - - WNW 15 17 8 9 - - -
 
Date/Time
EST
Temp
°C
App
Temp
°C
Dew
Point
°C
Rel
Hum
%
Delta-T
°C
Wind Press
QNH
hPa
Press
MSL
hPa
Rain since
9am
mm
Dir  Spd
km/h
Gust
km/h
Spd
kts
Gust
kts
27/11:30pm - - - - - NW 13 15 7 8 - - -
27/11:00pm - - - - - NW 15 17 8 9 - - -
27/10:30pm - - - - - NW 15 17 8 9 - - -
27/10:00pm - - - - - NW 15 17 8 9 - - -
27/09:30pm - - - - - WNW 13 15 7 8 - - -
27/09:00pm - - - - - NW 11 13 6 7 - - -
27/08:30pm - - - - - WNW 9 11 5 6 - - -
27/08:00pm - - - - - WNW 9 11 5 6 - - -
27/07:30pm - - - - - SW 9 11 5 6 - - -
27/07:00pm - - - - - SSW 9 13 5 7 - - -
27/06:30pm - - - - - S 11 15 6 8 - - -
27/06:00pm - - - - - S 9 11 5 6 - - -
27/05:30pm - - - - - SSE 15 19 8 10 - - -
27/05:00pm - - - - - SSE 15 19 8 10 - - -
27/04:30pm - - - - - SSE 15 17 8 9 - - -
27/04:00pm - - - - - SSE 13 17 7 9 - - -
27/03:30pm - - - - - SSE 15 19 8 10 - - -
27/03:00pm - - - - - SSE 17 20 9 11 - - -
27/02:30pm - - - - - SSE 15 20 8 11 - - -
27/02:00pm - - - - - SSE 19 24 10 13 - - -
27/01:30pm - - - - - SSE 22 30 12 16 - - -
27/01:00pm - - - - - S 20 24 11 13 - - -
27/12:30pm - - - - - SSE 24 30 13 16 - - -
27/12:00pm - - - - - S 24 30 13 16 - - -
27/11:30am - - - - - S 24 30 13 16 - - -
27/11:00am - - - - - S 24 30 13 16 - - -
27/10:30am - - - - - S 28 32 15 17 - - -
27/10:00am - - - - - S 28 33 15 18 - - -
27/09:30am - - - - - S 30 37 16 20 - - -
27/09:00am - - - - - S 32 37 17 20 - - -
27/08:30am - - - - - S 30 37 16 20 - - -
27/08:00am - - - - - S 32 37 17 20 - - -
27/07:30am - - - - - S 33 39 18 21 - - -
27/07:00am - - - - - S 30 37 16 20 - - -
27/06:30am - - - - - S 32 37 17 20 - - -
27/06:00am - - - - - S 32 37 17 20 - - -
27/05:30am - - - - - S 33 41 18 22 - - -
27/05:00am - - - - - S 28 35 15 19 - - -
27/04:30am - - - - - S 28 35 15 19 - - -
27/04:00am - - - - - S 30 35 16 19 - - -
27/03:30am - - - - - S 37 46 20 25 - - -
27/03:23am - - - - - S 24 46 13 25 - - -
27/03:00am - - - - - SW 17 26 9 14 - - -
27/02:30am - - - - - S 20 37 11 20 - - -
27/02:00am - - - - - SSW 17 26 9 14 - - -
27/01:30am - - - - - SSW 19 30 10 16 - - -
27/01:00am - - - - - SSE 22 30 12 16 - - -
27/12:30am - - - - - SSE 37 50 20 27 - - -
27/12:11am - - - - - SSE 35 50 19 27 - - -
27/12:00am - - - - - SSE 19 32 10 17 - - -
 
Date/Time
EST
Temp
°C
App
Temp
°C
Dew
Point
°C
Rel
Hum
%
Delta-T
°C
Wind Press
QNH
hPa
Press
MSL
hPa
Rain since
9am
mm
Dir  Spd
km/h
Gust
km/h
Spd
kts
Gust
kts
26/11:30pm - - - - - SSE 39 46 21 25 - - -
26/11:00pm - - - - - SSE 41 50 22 27 - - -
26/10:30pm - - - - - SSE 35 48 19 26 - - -
26/10:00pm - - - - - SSE 33 46 18 25 - - -
26/09:30pm - - - - - SSE 41 52 22 28 - - -
26/09:00pm - - - - - SSE 43 56 23 30 - - -
26/08:30pm - - - - - SSE 39 50 21 27 - - -
26/08:00pm - - - - - S 35 41 19 22 - - -
26/07:30pm - - - - - SSE 41 50 22 27 - - -
26/07:14pm - - - - - SSE 28 52 15 28 - - -
26/07:00pm - - - - - SSE 33 41 18 22 - - -
26/06:49pm - - - - - SSE 32 50 17 27 - - -
26/06:30pm - - - - - SSE 44 59 24 32 - - -
26/06:16pm - - - - - S 30 48 16 26 - - -
26/06:00pm - - - - - SSE 37 48 20 26 - - -
26/05:35pm - - - - - SSE 28 50 15 27 - - -
26/05:30pm - - - - - SE 24 32 13 17 - - -
26/05:00pm - - - - - SSE 37 56 20 30 - - -
26/04:59pm - - - - - SSE 37 56 20 30 - - -
26/04:30pm - - - - - SSE 35 41 19 22 - - -
26/04:00pm - - - - - SSE 43 63 23 34 - - -
26/03:56pm - - - - - SSE 41 63 22 34 - - -
26/03:30pm - - - - - SSE 44 61 24 33 - - -
26/03:24pm - - - - - SSE 39 57 21 31 - - -
26/03:22pm - - - - - SSE 37 54 20 29 - - -
26/03:00pm - - - - - SSE 30 35 16 19 - - -
26/02:30pm - - - - - SSE 44 65 24 35 - - -
26/02:27pm - - - - - SSE 43 61 23 33 - - -
26/02:00pm - - - - - SSE 50 61 27 33 - - -
26/01:33pm - - - - - SSE 43 61 23 33 - - -
26/01:30pm - - - - - SSE 39 56 21 30 - - -
26/01:00pm - - - - - SSE 43 56 23 30 - - -
26/12:44pm - - - - - SSE 41 59 22 32 - - -
26/12:30pm - - - - - SSE 41 57 22 31 - - -
26/12:00pm - - - - - SSE 43 54 23 29 - - -
26/11:30am - - - - - SSE 44 57 24 31 - - -
26/11:00am - - - - - SSE 46 59 25 32 - - -
26/10:30am - - - - - SSE 44 56 24 30 - - -
26/10:00am - - - - - SSE 41 56 22 30 - - -
26/09:30am - - - - - S 28 46 15 25 - - -
26/09:26am - - - - - S 32 50 17 27 - - -
26/09:00am - - - - - S 39 54 21 29 - - -
26/08:40am - - - - - S 28 52 15 28 - - -
26/08:30am - - - - - S 24 41 13 22 - - -
26/08:00am - - - - - S 43 56 23 30 - - -
26/07:30am - - - - - S 43 56 23 30 - - -
26/07:18am - - - - - S 37 56 20 30 - - -
26/07:00am - - - - - S 37 56 20 30 - - -
26/06:56am - - - - - S 35 56 19 30 - - -
26/06:30am - - - - - S 24 57 13 31 - - -
26/06:00am - - - - - S 35 56 19 30 - - -
26/05:55am - - - - - S 41 59 22 32 - - -
26/05:30am - - - - - S 54 63 29 34 - - -
26/05:27am - - - - - S 52 63 28 34 - - -
26/05:00am - - - - - S 41 63 22 34 - - -
26/04:30am - - - - - S 43 61 23 33 - - -
26/04:00am - - - - - S 37 59 20 32 - - -
26/03:44am - - - - - S 33 59 18 32 - - -
26/03:30am - - - - - S 19 59 10 32 - - -
26/03:00am - - - - - S 32 59 17 32 - - -
26/02:37am - - - - - S 17 59 9 32 - - -
26/02:30am - - - - - S 17 59 9 32 - - -
26/02:00am - - - - - S 28 59 15 32 - - -
26/01:55am - - - - - S 20 59 11 32 - - -
26/01:30am - - - - - S 22 59 12 32 - - -
26/01:00am - - - - - S 24 59 13 32 - - -
26/12:44am - - - - - S 20 57 11 31 - - -
26/12:30am - - - - - S 13 59 7 32 - - -
26/12:03am - - - - - S 22 59 12 32 - - -
26/12:00am - - - - - S 19 57 10 31 - - -
 
Date/Time
EST
Temp
°C
App
Temp
°C
Dew
Point
°C
Rel
Hum
%
Delta-T
°C
Wind Press
QNH
hPa
Press
MSL
hPa
Rain since
9am
mm
Dir  Spd
km/h
Gust
km/h
Spd
kts
Gust
kts
25/11:30pm - - - - - S 28 59 15 32 - - -
25/11:24pm - - - - - S 28 59 15 32 - - -
25/11:00pm - - - - - S 19 61 10 33 - - -
25/10:30pm - - - - - S 37 61 20 33 - - -
25/10:00pm - - - - - S 20 63 11 34 - - -
25/09:59pm - - - - - S 19 63 10 34 - - -
25/09:30pm - - - - - S 17 61 9 33 - - -
25/09:04pm - - - - - S 28 56 15 30 - - -
25/09:00pm - - - - - S 24 57 13 31 - - -
25/08:57pm - - - - - S 22 57 12 31 - - -
25/08:30pm - - - - - S 26 56 14 30 - - -
25/08:02pm - - - - - S 13 56 7 30 - - -
25/08:00pm - - - - - S 7 56 4 30 - - -
25/07:30pm - - - - - S 15 57 8 31 - - -
25/07:29pm - - - - - S 13 57 7 31 - - -
25/07:00pm - - - - - S 4 54 2 29 - - -
25/06:30pm - - - - - S 6 52 3 28 - - -
25/06:00pm - - - - - S 4 50 2 27 - - -
25/05:30pm - - - - - S 2 43 1 23 - - -
25/05:00pm - - - - - CALM 0 28 0 15 - - -
25/04:30pm - - - - - S 2 50 1 27 - - -
25/04:21pm - - - - - S 67 95 36 51 - - -
25/04:05pm - - - - - S 74 95 40 51 - - -
25/04:00pm - - - - - S 74 91 40 49 - - -
25/03:30pm - - - - - S 76 95 41 51 - - -
25/03:11pm - - - - - S 76 95 41 51 - - -
25/03:10pm - - - - - S 78 95 42 51 - - -
25/03:00pm - - - - - S 85 98 46 53 - - -
25/02:36pm - - - - - S 78 98 42 53 - - -
25/02:30pm - - - - - S 78 95 42 51 - - -
25/02:00pm - - - - - S 72 95 39 51 - - -
25/01:33pm - - - - - S 78 96 42 52 - - -
25/01:30pm - - - - - S 82 96 44 52 - - -
25/01:03pm - - - - - S 80 98 43 53 - - -
25/01:00pm - - - - - S 82 98 44 53 - - -
25/12:49pm - - - - - S 76 95 41 51 - - -
25/12:30pm - - - - - S 78 91 42 49 - - -
25/12:01pm - - - - - S 72 91 39 49 - - -
25/12:00pm - - - - - S 74 91 40 49 - - -
25/11:30am - - - - - S 78 96 42 52 - - -
25/11:00am - - - - - S 70 89 38 48 - - -
25/10:58am - - - - - S 70 89 38 48 - - -
25/10:45am - - - - - S 67 87 36 47 - - -
25/10:30am - - - - - SSE 54 78 29 42 - - -
25/10:00am - - - - - SSE 59 80 32 43 - - -
25/09:30am - - - - - S 63 85 34 46 - - -
25/09:00am - - - - - S 63 87 34 47 - - -
25/08:30am - - - - - S 65 87 35 47 - - -
25/08:00am - - - - - S 72 91 39 49 - - -
25/07:30am - - - - - S 67 91 36 49 - - -
25/07:07am - - - - - S 65 83 35 45 - - -
25/07:00am - - - - - S 72 87 39 47 - - -
25/06:38am - - - - - S 67 85 36 46 - - -
25/06:30am - - - - - S 69 83 37 45 - - -
25/06:12am - - - - - S 70 89 38 48 - - -
25/06:00am - - - - - S 76 91 41 49 - - -
25/05:40am - - - - - S 70 89 38 48 - - -
25/05:30am - - - - - S 74 85 40 46 - - -
25/05:00am - - - - - S 72 95 39 51 - - -
25/04:58am - - - - - S 72 95 39 51 - - -
25/04:30am - - - - - S 72 89 39 48 - - -
25/04:02am - - - - - S 67 91 36 49 - - -
25/04:00am - - - - - S 67 80 36 43 - - -
25/03:31am - - - - - S 69 93 37 50 - - -
25/03:30am - - - - - S 69 83 37 45 - - -
25/03:05am - - - - - S 69 91 37 49 - - -
25/03:00am - - - - - S 69 85 37 46 - - -
25/02:34am - - - - - S 70 89 38 48 - - -
25/02:30am - - - - - S 72 89 39 48 - - -

Latest Capital City Observations: Canberra | Sydney | Melbourne | Brisbane | Adelaide | Perth | Hobart | Darwin

Other formats

Comma delimited format used in spreadsheet applications
http://www.bom.gov.au/fwo/IDN60901/IDN60901.95752.axf

JavaScript Object Notation format (JSON) in row-major order
http://www.bom.gov.au/fwo/IDN60901/IDN60901.95752.json

Data quality

Most of these data are generated automatically and are frequently updated. Quality checks on data are not normally performed. It is possible for incorrect values to appear. Refer to information at About Latest Weather Observations and please check the disclaimer before using these data.